Time;durP1;ratioP1;P1;durP2;ratioP2;P2;SDS_P1;SDS_P2;PMS_P1;PMS_P2;Temp;Humidity;BMP_temperature;BMP_pressure;BME280_temperature;BME280_humidity;BME280_pressure;Samples;Min_cycle;Max_cycle;Signal;HPM_P1;HPM_P2
2023/11/03 00:01:05;;;;;;;;;;;13.80;63.70;;;;;;4994528;28;87128;-43
2023/11/03 00:03:32;;;;;;;;;;;13.70;63.70;;;;;;4995584;28;87770;-43
2023/11/03 00:05:58;;;;;;;;;;;13.80;63.70;;;;;;4995742;28;87183;-43
2023/11/03 00:08:24;;;;;;;;;;;13.80;63.70;;;;;;4997482;28;87425;-44
2023/11/03 00:10:50;;;;;;;;;;;13.80;63.70;;;;;;4996752;28;87234;-44
2023/11/03 00:13:16;;;;;;;;;;;13.80;63.70;;;;;;4993599;28;87200;-45
2023/11/03 00:15:41;;;;;;;;;;;13.80;63.70;;;;;;4994829;28;89077;-43
2023/11/03 00:18:07;;;;;;;;;;;13.70;63.70;;;;;;4994406;28;87161;-43
2023/11/03 00:20:32;;;;;;;;;;;13.70;63.70;;;;;;4995092;28;87521;-43
2023/11/03 00:22:58;;;;;;;;;;;13.80;63.70;;;;;;4995159;28;88047;-43
2023/11/03 00:25:23;;;;;;;;;;;13.70;63.60;;;;;;4994365;28;87166;-43
2023/11/03 00:27:50;;;;;;;;;;;13.70;63.70;;;;;;4996431;28;87422;-43
2023/11/03 00:30:17;;;;;;;;;;;13.70;63.80;;;;;;4998351;28;89045;-43
2023/11/03 00:32:43;;;;;;;;;;;13.70;63.70;;;;;;4994146;28;87380;-43
2023/11/03 00:35:08;;;;;;;;;;;13.70;63.70;;;;;;4995348;28;87966;-43
2023/11/03 00:37:35;;;;;;;;;;;13.70;63.80;;;;;;4994896;28;87400;-42
2023/11/03 00:40:01;;;;;;;;;;;13.70;63.80;;;;;;4993752;28;88183;-42
2023/11/03 00:42:26;;;;;;;;;;;13.70;63.70;;;;;;4995765;28;88219;-44
2023/11/03 00:44:52;;;;;;;;;;;13.70;63.80;;;;;;4992970;28;87202;-44
2023/11/03 00:47:18;;;;;;;;;;;13.70;63.80;;;;;;4993066;28;87259;-45
2023/11/03 00:49:43;;;;;;;;;;;13.70;63.70;;;;;;4995507;28;87917;-43
2023/11/03 00:52:09;;;;;;;;;;;13.70;63.80;;;;;;4996460;28;87318;-43
2023/11/03 00:54:35;;;;;;;;;;;13.70;63.70;;;;;;4994385;28;88196;-42
2023/11/03 00:57:00;;;;;;;;;;;13.70;63.80;;;;;;4995563;28;86484;-43
2023/11/03 00:59:26;;;;;;;;;;;13.70;63.70;;;;;;4995014;28;87110;-43
2023/11/03 01:01:52;;;;;;;;;;;13.70;63.70;;;;;;4994845;28;88267;-43
2023/11/03 01:04:18;;;;;;;;;;;13.70;63.80;;;;;;4992140;28;88286;-43
2023/11/03 01:06:43;;;;;;;;;;;13.70;63.80;;;;;;4995486;28;88632;-43
2023/11/03 01:09:09;;;;;;;;;;;13.70;63.80;;;;;;4993469;28;88098;-43
2023/11/03 01:11:36;;;;;;;;;;;13.70;63.80;;;;;;4997507;28;87156;-43
2023/11/03 01:14:05;;;;;;;;;;;13.60;63.70;;;;;;4994517;28;89280;-43
2023/11/03 01:16:31;;;;;;;;;;;13.60;63.70;;;;;;4994814;28;87086;-44
2023/11/03 01:18:56;;;;;;;;;;;13.60;63.80;;;;;;4992537;28;87262;-43
2023/11/03 01:21:22;;;;;;;;;;;13.60;63.80;;;;;;4995075;28;88578;-43
2023/11/03 01:23:48;;;;;;;;;;;13.60;63.70;;;;;;4993374;28;87203;-43
2023/11/03 01:26:16;;;;;;;;;;;13.60;63.80;;;;;;4994023;28;88961;-42
2023/11/03 01:28:42;;;;;;;;;;;13.60;63.70;;;;;;4993839;28;88997;-43
2023/11/03 01:31:08;;;;;;;;;;;13.60;63.80;;;;;;4991898;28;87147;-42
2023/11/03 01:33:39;;;;;;;;;;;13.60;63.80;;;;;;4998506;28;87411;-43
2023/11/03 01:36:04;;;;;;;;;;;13.60;63.90;;;;;;4993365;28;87320;-43
2023/11/03 01:38:31;;;;;;;;;;;13.60;63.90;;;;;;4994316;28;87242;-45
2023/11/03 01:40:56;;;;;;;;;;;13.60;63.80;;;;;;4993930;28;88164;-44
2023/11/03 01:43:22;;;;;;;;;;;13.60;63.90;;;;;;4992832;28;87122;-44
2023/11/03 01:45:48;;;;;;;;;;;13.60;63.80;;;;;;4994976;28;88599;-45
2023/11/03 01:48:14;;;;;;;;;;;13.60;63.80;;;;;;4995244;28;88017;-45
2023/11/03 01:50:40;;;;;;;;;;;13.50;63.80;;;;;;4992324;28;87192;-43
2023/11/03 01:53:06;;;;;;;;;;;13.60;63.80;;;;;;4993621;28;88114;-42
2023/11/03 01:55:32;;;;;;;;;;;13.60;63.80;;;;;;4996387;28;88145;-43
2023/11/03 01:57:58;;;;;;;;;;;13.60;63.80;;;;;;4993088;28;87776;-43
2023/11/03 02:00:24;;;;;;;;;;;13.60;63.80;;;;;;4994173;28;88042;-44
2023/11/03 02:02:52;;;;;;;;;;;13.60;63.90;;;;;;4991833;28;87318;-42
2023/11/03 02:05:18;;;;;;;;;;;13.60;63.90;;;;;;4992303;28;87459;-43
2023/11/03 02:07:43;;;;;;;;;;;13.60;63.90;;;;;;4993973;28;88105;-44
2023/11/03 02:10:09;;;;;;;;;;;13.60;63.80;;;;;;4993858;28;86465;-43
2023/11/03 02:12:34;;;;;;;;;;;13.50;63.80;;;;;;4992323;28;87163;-42
2023/11/03 02:15:00;;;;;;;;;;;13.50;63.80;;;;;;4993859;28;88124;-43
2023/11/03 02:17:26;;;;;;;;;;;13.50;63.90;;;;;;4997088;28;88164;-43
2023/11/03 02:19:52;;;;;;;;;;;13.50;63.90;;;;;;4991321;28;87913;-43
2023/11/03 02:22:17;;;;;;;;;;;13.50;63.80;;;;;;4994467;28;87263;-43
2023/11/03 02:24:43;;;;;;;;;;;13.60;63.80;;;;;;4992396;28;87509;-43
2023/11/03 02:27:08;;;;;;;;;;;13.50;63.80;;;;;;4993366;28;88023;-43
2023/11/03 02:29:34;;;;;;;;;;;13.50;63.80;;;;;;4993227;28;87140;-43
2023/11/03 02:32:00;;;;;;;;;;;13.50;63.90;;;;;;4991710;28;87431;-43
2023/11/03 02:34:25;;;;;;;;;;;13.50;63.80;;;;;;4994574;28;87416;-44
2023/11/03 02:36:52;;;;;;;;;;;13.50;63.90;;;;;;4991343;28;87221;-43
2023/11/03 02:39:18;;;;;;;;;;;13.50;63.90;;;;;;4997024;28;87544;-45
2023/11/03 02:41:43;;;;;;;;;;;13.50;63.90;;;;;;4991414;28;88168;-44
2023/11/03 02:44:09;;;;;;;;;;;13.50;63.90;;;;;;4993354;28;88488;-43
2023/11/03 02:46:34;;;;;;;;;;;13.50;63.90;;;;;;4992159;28;87401;-43
2023/11/03 02:49:00;;;;;;;;;;;13.50;63.90;;;;;;4992358;28;87522;-43
2023/11/03 02:51:25;;;;;;;;;;;13.50;63.90;;;;;;4993526;28;87569;-43
2023/11/03 02:53:51;;;;;;;;;;;13.50;63.90;;;;;;4990658;28;87940;-43
2023/11/03 02:56:27;;;;;;;;;;;13.50;63.90;;;;;;4991153;28;87123;-43
2023/11/03 02:58:52;;;;;;;;;;;13.50;63.90;;;;;;4992943;28;87521;-44
2023/11/03 03:01:25;;;;;;;;;;;13.50;64.00;;;;;;4996533;28;87924;-43
2023/11/03 03:03:50;;;;;;;;;;;13.50;64.00;;;;;;4991175;28;87527;-43
2023/11/03 03:06:16;;;;;;;;;;;13.50;64.00;;;;;;4992622;28;88324;-44
2023/11/03 03:08:41;;;;;;;;;;;13.40;63.90;;;;;;4991909;28;87385;-42
2023/11/03 03:11:06;;;;;;;;;;;13.40;63.90;;;;;;4992808;28;87198;-44
2023/11/03 03:13:32;;;;;;;;;;;13.40;64.60;;;;;;4992580;28;88071;-43
2023/11/03 03:15:57;;;;;;;;;;;13.40;64.00;;;;;;4991717;28;87108;-42
2023/11/03 03:18:23;;;;;;;;;;;13.40;64.00;;;;;;4993925;28;87593;-45
2023/11/03 03:20:50;;;;;;;;;;;13.40;64.00;;;;;;4993214;28;88041;-44
2023/11/03 03:23:16;;;;;;;;;;;13.40;64.10;;;;;;4993757;28;87335;-44
2023/11/03 03:25:41;;;;;;;;;;;13.40;64.10;;;;;;4991420;28;88240;-42
2023/11/03 03:28:07;;;;;;;;;;;13.40;64.10;;;;;;4992366;28;87057;-42
2023/11/03 03:30:32;;;;;;;;;;;13.40;64.20;;;;;;4992239;28;88713;-43
2023/11/03 03:32:58;;;;;;;;;;;13.40;64.20;;;;;;4990280;28;88060;-43
2023/11/03 03:35:23;;;;;;;;;;;13.40;64.20;;;;;;4993663;28;87164;-42
2023/11/03 03:37:49;;;;;;;;;;;13.40;64.20;;;;;;4990371;28;87073;-43
2023/11/03 03:40:14;;;;;;;;;;;13.40;64.20;;;;;;4993487;28;87991;-43
2023/11/03 03:42:40;;;;;;;;;;;13.40;64.20;;;;;;4993809;28;87103;-43
2023/11/03 03:45:06;;;;;;;;;;;13.40;64.20;;;;;;4992084;28;87972;-43
2023/11/03 03:47:32;;;;;;;;;;;13.40;64.20;;;;;;4991923;28;86362;-43
2023/11/03 03:49:58;;;;;;;;;;;13.40;64.20;;;;;;4991477;28;87187;-43
2023/11/03 03:52:24;;;;;;;;;;;13.40;64.20;;;;;;4992562;28;88433;-44
2023/11/03 03:54:49;;;;;;;;;;;13.40;64.20;;;;;;4989667;28;88195;-43
2023/11/03 03:57:15;;;;;;;;;;;13.40;64.20;;;;;;4993606;28;88318;-43
2023/11/03 03:59:41;;;;;;;;;;;13.40;64.20;;;;;;4990411;28;88098;-44
2023/11/03 04:02:06;;;;;;;;;;;13.30;64.20;;;;;;4991970;28;87138;-43
2023/11/03 04:04:32;;;;;;;;;;;13.40;64.30;;;;;;4994634;28;87311;-44
2023/11/03 04:06:57;;;;;;;;;;;13.40;64.20;;;;;;4991204;28;87181;-42
2023/11/03 04:09:23;;;;;;;;;;;13.30;64.20;;;;;;4993088;28;87557;-43
2023/11/03 04:11:49;;;;;;;;;;;13.30;64.40;;;;;;4990334;28;86917;-43
2023/11/03 04:14:14;;;;;;;;;;;13.30;64.30;;;;;;4993495;28;87179;-43
2023/11/03 04:16:40;;;;;;;;;;;13.30;64.30;;;;;;4990742;28;87548;-42
2023/11/03 04:19:05;;;;;;;;;;;13.30;64.30;;;;;;4992127;28;88700;-43
2023/11/03 04:21:31;;;;;;;;;;;13.30;64.30;;;;;;4991804;28;87108;-43
2023/11/03 04:23:57;;;;;;;;;;;13.30;64.30;;;;;;4992102;28;87599;-43
2023/11/03 04:26:23;;;;;;;;;;;13.30;64.40;;;;;;4993125;28;88447;-44
2023/11/03 04:28:49;;;;;;;;;;;13.30;64.30;;;;;;4993378;28;87436;-43
2023/11/03 04:31:14;;;;;;;;;;;13.30;64.30;;;;;;4989492;28;88161;-43
2023/11/03 04:33:40;;;;;;;;;;;13.30;64.40;;;;;;4992421;28;88286;-43
2023/11/03 04:36:06;;;;;;;;;;;13.30;64.40;;;;;;4992504;28;87465;-43
2023/11/03 04:38:31;;;;;;;;;;;13.30;64.40;;;;;;4993273;28;91171;-43
2023/11/03 04:40:57;;;;;;;;;;;13.30;64.40;;;;;;4995234;28;86933;-43
2023/11/03 04:43:23;;;;;;;;;;;13.30;64.40;;;;;;4993193;28;87986;-44
2023/11/03 04:45:48;;;;;;;;;;;13.30;64.40;;;;;;4996090;28;87971;-43
2023/11/03 04:48:14;;;;;;;;;;;13.30;64.40;;;;;;4995162;28;87238;-43
2023/11/03 04:50:39;;;;;;;;;;;13.30;64.30;;;;;;4995622;28;88131;-43
2023/11/03 04:53:05;;;;;;;;;;;13.30;64.30;;;;;;4993747;28;87136;-43
2023/11/03 04:55:30;;;;;;;;;;;13.30;64.30;;;;;;4994944;28;87217;-44
2023/11/03 04:57:57;;;;;;;;;;;13.30;64.30;;;;;;4994541;28;88216;-43
2023/11/03 05:00:22;;;;;;;;;;;13.30;64.30;;;;;;4994287;28;86444;-43
2023/11/03 05:02:49;;;;;;;;;;;13.30;64.30;;;;;;4995276;28;87014;-43
2023/11/03 05:05:15;;;;;;;;;;;13.20;64.40;;;;;;4995644;28;89469;-43
2023/11/03 05:07:41;;;;;;;;;;;13.30;64.40;;;;;;4992634;28;88122;-44
2023/11/03 05:10:07;;;;;;;;;;;13.30;64.40;;;;;;4997492;28;88700;-42
2023/11/03 05:15:16;;;;;;;;;;;13.30;64.40;;;;;;4990348;28;87500;-42
2023/11/03 05:17:42;;;;;;;;;;;13.20;64.40;;;;;;4993510;28;88249;-42
2023/11/03 05:20:09;;;;;;;;;;;13.30;64.40;;;;;;4994377;28;87446;-44
2023/11/03 05:22:35;;;;;;;;;;;13.20;64.40;;;;;;4990108;28;87283;-43
2023/11/03 05:25:01;;;;;;;;;;;13.30;64.40;;;;;;4987772;28;87908;-42
2023/11/03 05:27:26;;;;;;;;;;;13.20;64.40;;;;;;4992321;28;87209;-43
2023/11/03 05:29:52;;;;;;;;;;;13.20;64.40;;;;;;4995415;28;87610;-46
2023/11/03 05:32:17;;;;;;;;;;;13.20;64.40;;;;;;4994888;28;88222;-43
2023/11/03 05:34:43;;;;;;;;;;;13.20;64.40;;;;;;4991697;28;88830;-42
2023/11/03 05:37:10;;;;;;;;;;;13.20;64.40;;;;;;4989518;28;88289;-42
2023/11/03 05:39:36;;;;;;;;;;;13.20;64.40;;;;;;4992987;28;87096;-42
2023/11/03 05:42:04;;;;;;;;;;;13.20;64.40;;;;;;4993874;28;87509;-42
2023/11/03 05:44:30;;;;;;;;;;;13.20;64.40;;;;;;4991476;28;89269;-42
2023/11/03 05:46:56;;;;;;;;;;;13.20;64.40;;;;;;4990595;28;87233;-43
2023/11/03 05:49:21;;;;;;;;;;;13.20;64.40;;;;;;4994007;28;87414;-42
2023/11/03 05:51:47;;;;;;;;;;;13.20;64.40;;;;;;4994705;28;88015;-43
2023/11/03 05:54:12;;;;;;;;;;;13.20;64.40;;;;;;4993895;28;87562;-42
2023/11/03 05:56:38;;;;;;;;;;;13.20;64.40;;;;;;4990783;28;89035;-42
2023/11/03 05:59:04;;;;;;;;;;;13.20;64.40;;;;;;4991918;28;87314;-42
2023/11/03 06:01:33;;;;;;;;;;;13.20;64.50;;;;;;4991884;28;87604;-42
2023/11/03 06:04:02;;;;;;;;;;;13.20;64.40;;;;;;4992151;28;87686;-42
2023/11/03 06:06:27;;;;;;;;;;;13.20;64.50;;;;;;4993248;28;87082;-46
2023/11/03 06:08:53;;;;;;;;;;;13.20;64.50;;;;;;4994087;28;87490;-43
2023/11/03 06:11:19;;;;;;;;;;;13.20;64.60;;;;;;4991612;28;88801;-42
2023/11/03 06:13:44;;;;;;;;;;;13.20;64.60;;;;;;4997207;28;86761;-42
2023/11/03 06:16:10;;;;;;;;;;;13.20;64.80;;;;;;4991576;28;87405;-42
2023/11/03 06:18:35;;;;;;;;;;;13.20;64.80;;;;;;4994994;28;87161;-42
2023/11/03 06:21:01;;;;;;;;;;;13.20;64.90;;;;;;4990462;28;88128;-42
2023/11/03 06:23:27;;;;;;;;;;;13.20;64.80;;;;;;4989529;28;88486;-43
2023/11/03 06:25:52;;;;;;;;;;;13.20;64.80;;;;;;4992158;28;87130;-43
2023/11/03 06:28:18;;;;;;;;;;;13.20;64.80;;;;;;4994038;28;88205;-42
2023/11/03 06:30:44;;;;;;;;;;;13.20;64.90;;;;;;4991287;28;87206;-43
2023/11/03 06:33:09;;;;;;;;;;;13.20;64.70;;;;;;4992209;28;87167;-44
2023/11/03 06:35:35;;;;;;;;;;;13.20;64.80;;;;;;4994678;28;87491;-44
2023/11/03 06:38:00;;;;;;;;;;;13.20;64.80;;;;;;4991968;28;87277;-43
2023/11/03 06:40:26;;;;;;;;;;;13.20;64.80;;;;;;4986681;28;87097;-44
2023/11/03 06:42:51;;;;;;;;;;;13.20;64.90;;;;;;4989560;28;87241;-43
2023/11/03 06:45:17;;;;;;;;;;;13.20;64.80;;;;;;4993347;28;87996;-42
2023/11/03 06:47:43;;;;;;;;;;;13.20;64.70;;;;;;4991681;28;89654;-43
2023/11/03 06:50:09;;;;;;;;;;;13.20;64.70;;;;;;4990999;28;88336;-43
2023/11/03 06:52:35;;;;;;;;;;;13.20;64.80;;;;;;4990210;28;87123;-43
2023/11/03 06:55:00;;;;;;;;;;;13.20;64.80;;;;;;4993834;28;88868;-43
2023/11/03 06:57:26;;;;;;;;;;;13.20;64.80;;;;;;4994424;28;88034;-42
2023/11/03 06:59:51;;;;;;;;;;;13.20;64.80;;;;;;4990005;28;87396;-42
2023/11/03 07:02:17;;;;;;;;;;;13.20;64.80;;;;;;4993921;28;87236;-42
2023/11/03 07:04:44;;;;;;;;;;;13.20;64.80;;;;;;4992166;28;87137;-44
2023/11/03 07:07:10;;;;;;;;;;;13.20;64.80;;;;;;4993579;28;87894;-42
2023/11/03 07:09:35;;;;;;;;;;;13.20;64.80;;;;;;4986517;28;90843;-42
2023/11/03 07:12:01;;;;;;;;;;;13.20;64.70;;;;;;4993098;28;87164;-42
2023/11/03 07:14:29;;;;;;;;;;;13.20;64.80;;;;;;4994561;28;87856;-42
2023/11/03 07:16:56;;;;;;;;;;;13.20;64.90;;;;;;4987763;28;88967;-42
2023/11/03 07:19:22;;;;;;;;;;;13.20;64.90;;;;;;4992575;28;87175;-42
2023/11/03 07:21:51;;;;;;;;;;;13.20;64.80;;;;;;4990071;28;88458;-42
2023/11/03 07:24:17;;;;;;;;;;;13.20;65.00;;;;;;4993027;28;87654;-43
2023/11/03 07:26:43;;;;;;;;;;;13.20;64.90;;;;;;4990221;28;87326;-44
2023/11/03 07:29:09;;;;;;;;;;;13.20;65.10;;;;;;4990298;28;88585;-43
2023/11/03 07:31:35;;;;;;;;;;;13.20;65.10;;;;;;4991637;28;87272;-44
2023/11/03 07:34:01;;;;;;;;;;;13.20;65.00;;;;;;4988319;28;89863;-44
2023/11/03 07:36:26;;;;;;;;;;;13.20;65.00;;;;;;4991401;28;89436;-42
2023/11/03 07:38:52;;;;;;;;;;;13.20;65.10;;;;;;4992833;28;87269;-43
2023/11/03 07:41:17;;;;;;;;;;;13.20;65.00;;;;;;4991944;28;87878;-42
2023/11/03 07:43:43;;;;;;;;;;;13.20;65.00;;;;;;4988330;28;88126;-43
2023/11/03 07:46:10;;;;;;;;;;;13.20;65.00;;;;;;4989718;28;87154;-44
2023/11/03 07:48:36;;;;;;;;;;;13.20;65.10;;;;;;4992461;28;89805;-42
2023/11/03 07:51:02;;;;;;;;;;;13.20;65.10;;;;;;4993920;28;86627;-46
2023/11/03 07:53:27;;;;;;;;;;;13.20;65.10;;;;;;4986454;28;87265;-42
2023/11/03 07:55:54;;;;;;;;;;;13.20;65.10;;;;;;4988266;28;88240;-42
2023/11/03 07:58:20;;;;;;;;;;;13.20;65.10;;;;;;4991645;28;88070;-42
2023/11/03 08:00:49;;;;;;;;;;;13.20;65.00;;;;;;4988841;28;89920;-43
2023/11/03 08:03:15;;;;;;;;;;;13.20;65.10;;;;;;4989845;28;87323;-42
2023/11/03 08:05:41;;;;;;;;;;;13.20;65.00;;;;;;4989401;28;87270;-44
2023/11/03 08:08:07;;;;;;;;;;;13.20;65.10;;;;;;4991213;28;88228;-43
2023/11/03 08:10:33;;;;;;;;;;;13.20;65.10;;;;;;4987808;28;87210;-44
2023/11/03 08:12:58;;;;;;;;;;;13.20;65.20;;;;;;4989936;28;87940;-42
2023/11/03 08:15:24;;;;;;;;;;;13.20;65.00;;;;;;4995321;28;87284;-42
2023/11/03 08:17:49;;;;;;;;;;;13.20;65.00;;;;;;4993858;28;87239;-42
2023/11/03 08:20:15;;;;;;;;;;;13.20;65.10;;;;;;4988953;28;87503;-42
2023/11/03 08:22:42;;;;;;;;;;;13.20;65.10;;;;;;4995663;28;89293;-43
2023/11/03 08:25:08;;;;;;;;;;;13.20;65.10;;;;;;4992433;28;88555;-43
2023/11/03 08:27:33;;;;;;;;;;;13.20;65.00;;;;;;4994122;28;87658;-43
2023/11/03 08:30:00;;;;;;;;;;;13.20;65.10;;;;;;4990469;28;88197;-42
2023/11/03 08:32:26;;;;;;;;;;;13.20;65.10;;;;;;4991802;28;88573;-43
2023/11/03 08:34:52;;;;;;;;;;;13.20;65.00;;;;;;4993450;28;88730;-42
2023/11/03 08:37:18;;;;;;;;;;;13.20;65.00;;;;;;4994509;28;87188;-44
2023/11/03 08:39:43;;;;;;;;;;;13.20;65.10;;;;;;4995069;28;88451;-43
2023/11/03 08:42:09;;;;;;;;;;;13.20;65.00;;;;;;4992193;28;87615;-43
2023/11/03 08:44:34;;;;;;;;;;;13.20;65.10;;;;;;4998664;28;87499;-42
2023/11/03 08:47:00;;;;;;;;;;;13.20;65.20;;;;;;4986845;28;90728;-43
2023/11/03 08:49:27;;;;;;;;;;;13.20;65.20;;;;;;4991714;28;87210;-42
2023/11/03 08:51:53;;;;;;;;;;;13.20;65.40;;;;;;4991585;28;87398;-42
2023/11/03 08:54:19;;;;;;;;;;;13.20;65.30;;;;;;4995683;28;88926;-43
2023/11/03 08:56:45;;;;;;;;;;;13.20;65.20;;;;;;4991181;28;88939;-42
2023/11/03 08:59:12;;;;;;;;;;;13.20;65.10;;;;;;4992335;28;87376;-42
2023/11/03 09:01:38;;;;;;;;;;;13.20;65.40;;;;;;4994722;28;88115;-43
2023/11/03 09:04:03;;;;;;;;;;;13.20;65.00;;;;;;4994791;28;86396;-42
2023/11/03 09:06:29;;;;;;;;;;;13.30;65.10;;;;;;4993125;28;87530;-43
2023/11/03 09:08:55;;;;;;;;;;;13.30;65.00;;;;;;4993191;28;87212;-44
2023/11/03 09:11:21;;;;;;;;;;;13.30;65.20;;;;;;4992048;28;88776;-42
2023/11/03 09:13:53;;;;;;;;;;;13.30;65.00;;;;;;4993755;28;87195;-42
2023/11/03 09:16:20;;;;;;;;;;;13.30;64.90;;;;;;4993407;28;87507;-43
2023/11/03 09:18:46;;;;;;;;;;;13.30;64.90;;;;;;4993398;28;87771;-43
2023/11/03 09:21:11;;;;;;;;;;;13.30;64.90;;;;;;4994502;28;89568;-42
2023/11/03 09:23:37;;;;;;;;;;;13.30;65.10;;;;;;4989928;28;87842;-43
2023/11/03 09:26:04;;;;;;;;;;;13.40;65.10;;;;;;4993592;28;87613;-43
2023/11/03 09:28:30;;;;;;;;;;;13.40;65.00;;;;;;4993548;28;86635;-43
2023/11/03 09:30:57;;;;;;;;;;;13.40;64.90;;;;;;4993622;28;88198;-43
2023/11/03 09:33:22;;;;;;;;;;;13.40;65.00;;;;;;4993377;28;88127;-43
2023/11/03 09:35:48;;;;;;;;;;;13.40;65.00;;;;;;4987837;28;88048;-42
2023/11/03 09:38:19;;;;;;;;;;;13.40;65.20;;;;;;4995082;28;88161;-43
2023/11/03 09:40:44;;;;;;;;;;;13.40;65.20;;;;;;4992613;28;88005;-43
2023/11/03 09:43:10;;;;;;;;;;;13.50;65.10;;;;;;4992243;28;87148;-43
2023/11/03 09:45:36;;;;;;;;;;;13.50;65.10;;;;;;4991783;28;87574;-42
2023/11/03 09:48:02;;;;;;;;;;;13.40;65.20;;;;;;4996218;28;89772;-42
2023/11/03 09:50:27;;;;;;;;;;;13.40;65.30;;;;;;4992438;28;87690;-43
2023/11/03 09:52:54;;;;;;;;;;;13.40;65.30;;;;;;4990345;28;87665;-43
2023/11/03 09:55:23;;;;;;;;;;;13.50;65.40;;;;;;4991000;28;87741;-43
2023/11/03 09:57:51;;;;;;;;;;;13.50;65.30;;;;;;4990641;28;87404;-42
2023/11/03 10:00:19;;;;;;;;;;;13.50;65.50;;;;;;4988746;28;89068;-43
2023/11/03 10:02:47;;;;;;;;;;;13.50;65.40;;;;;;4991057;28;87163;-43
2023/11/03 10:05:16;;;;;;;;;;;13.50;65.60;;;;;;4991388;28;88752;-43
2023/11/03 10:08:17;;;;;;;;;;;13.50;65.50;;;;;;4993749;28;87399;-43
2023/11/03 10:10:45;;;;;;;;;;;13.50;65.50;;;;;;4997146;28;87812;-43
2023/11/03 10:13:11;;;;;;;;;;;13.60;65.70;;;;;;4986668;28;89219;-43
2023/11/03 10:15:40;;;;;;;;;;;13.60;65.40;;;;;;4994836;28;87193;-43
2023/11/03 10:18:07;;;;;;;;;;;13.50;65.50;;;;;;4991072;28;87569;-43
2023/11/03 10:20:32;;;;;;;;;;;13.60;65.80;;;;;;4991248;28;88014;-42
2023/11/03 10:22:58;;;;;;;;;;;13.60;65.80;;;;;;4988844;28;87796;-42
2023/11/03 10:25:26;;;;;;;;;;;13.50;66.10;;;;;;4993119;28;88167;-43
2023/11/03 10:27:54;;;;;;;;;;;13.50;65.90;;;;;;4990527;28;88023;-44
2023/11/03 10:30:20;;;;;;;;;;;13.60;65.90;;;;;;4988804;28;87111;-43
2023/11/03 10:32:45;;;;;;;;;;;13.60;66.10;;;;;;4998172;28;90461;-42
2023/11/03 10:35:12;;;;;;;;;;;13.60;66.20;;;;;;4992084;28;87948;-42
2023/11/03 10:37:38;;;;;;;;;;;13.60;66.30;;;;;;4992380;28;87390;-42
2023/11/03 10:40:04;;;;;;;;;;;13.60;66.20;;;;;;4988071;28;88174;-43
2023/11/03 10:42:30;;;;;;;;;;;13.60;66.60;;;;;;4991627;28;86402;-43
2023/11/03 10:44:57;;;;;;;;;;;13.60;66.70;;;;;;4991163;28;87085;-43
2023/11/03 10:47:31;;;;;;;;;;;13.60;66.90;;;;;;4989557;28;89116;-42
2023/11/03 10:50:05;;;;;;;;;;;13.60;67.00;;;;;;4990793;28;88173;-42
2023/11/03 10:52:41;;;;;;;;;;;13.60;67.30;;;;;;4989994;28;88533;-43
2023/11/03 10:55:13;;;;;;;;;;;13.60;66.80;;;;;;4996773;28;87955;-43
2023/11/03 10:57:38;;;;;;;;;;;13.60;67.30;;;;;;4993562;28;87778;-42
2023/11/03 11:00:09;;;;;;;;;;;13.70;67.50;;;;;;4988105;28;88277;-42
2023/11/03 11:03:01;;;;;;;;;;;13.60;67.30;;;;;;4993230;28;87514;-43
2023/11/03 11:06:05;;;;;;;;;;;13.60;67.60;;;;;;4989604;28;88811;-42
2023/11/03 11:08:32;;;;;;;;;;;13.70;67.60;;;;;;4977858;28;86740;-44
2023/11/03 11:11:01;;;;;;;;;;;13.70;67.60;;;;;;4976274;28;87404;-42
2023/11/03 11:13:28;;;;;;;;;;;13.70;67.60;;;;;;4987470;28;87361;-43
2023/11/03 11:15:56;;;;;;;;;;;13.70;68.40;;;;;;4990239;28;89307;-44
2023/11/03 11:18:32;;;;;;;;;;;13.70;67.90;;;;;;4989703;28;87240;-42
2023/11/03 11:21:02;;;;;;;;;;;13.70;67.10;;;;;;4990861;28;88056;-43
2023/11/03 11:23:30;;;;;;;;;;;13.70;68.10;;;;;;4991473;28;87524;-43
2023/11/03 11:25:56;;;;;;;;;;;13.70;67.70;;;;;;4991051;28;87526;-42
2023/11/03 11:28:32;;;;;;;;;;;13.70;67.90;;;;;;4989331;28;89395;-42
2023/11/03 11:30:57;;;;;;;;;;;13.70;68.00;;;;;;4991662;28;87386;-43
2023/11/03 11:33:26;;;;;;;;;;;13.80;68.20;;;;;;4990082;28;87361;-43
2023/11/03 11:35:53;;;;;;;;;;;13.70;67.50;;;;;;4989830;28;89477;-43
2023/11/03 11:38:19;;;;;;;;;;;13.70;68.10;;;;;;4992371;28;87170;-43
2023/11/03 11:40:46;;;;;;;;;;;13.80;68.30;;;;;;4991197;28;88266;-42
2023/11/03 11:43:11;;;;;;;;;;;13.80;67.80;;;;;;4988262;28;88179;-43
2023/11/03 11:45:37;;;;;;;;;;;13.80;68.00;;;;;;4989624;28;89384;-43
2023/11/03 11:48:07;;;;;;;;;;;13.80;68.10;;;;;;4989216;28;88116;-42
2023/11/03 11:50:32;;;;;;;;;;;13.80;68.20;;;;;;4993194;28;87139;-43
2023/11/03 11:52:59;;;;;;;;;;;13.80;68.20;;;;;;4991401;28;87385;-43
2023/11/03 11:55:25;;;;;;;;;;;13.80;68.20;;;;;;4987579;28;88347;-44
2023/11/03 11:57:51;;;;;;;;;;;13.80;68.30;;;;;;4990258;28;86618;-43
2023/11/03 12:00:18;;;;;;;;;;;13.80;68.30;;;;;;4996031;28;88121;-43
2023/11/03 12:02:53;;;;;;;;;;;13.90;68.30;;;;;;4990657;28;87224;-44
2023/11/03 12:05:19;;;;;;;;;;;13.90;68.40;;;;;;4993653;28;88072;-43
2023/11/03 12:07:45;;;;;;;;;;;13.90;68.40;;;;;;4990813;28;88002;-42
2023/11/03 12:10:11;;;;;;;;;;;13.90;68.40;;;;;;4992268;28;87154;-43
2023/11/03 12:12:37;;;;;;;;;;;13.90;68.50;;;;;;4984976;28;88001;-43
2023/11/03 12:15:04;;;;;;;;;;;13.90;68.20;;;;;;4987109;28;88030;-43
2023/11/03 12:17:29;;;;;;;;;;;13.90;68.20;;;;;;4993079;28;87181;-43
2023/11/03 12:19:55;;;;;;;;;;;13.90;68.20;;;;;;4988100;28;87439;-42
2023/11/03 12:22:22;;;;;;;;;;;13.90;68.10;;;;;;4988267;28;87627;-43
2023/11/03 12:24:53;;;;;;;;;;;13.90;68.10;;;;;;4988706;28;87332;-42
2023/11/03 12:27:19;;;;;;;;;;;13.90;68.60;;;;;;4990650;28;87975;-43
2023/11/03 12:29:44;;;;;;;;;;;13.90;68.50;;;;;;4993798;28;88395;-43
2023/11/03 12:32:11;;;;;;;;;;;14.00;68.30;;;;;;4985950;28;89703;-43
2023/11/03 12:34:37;;;;;;;;;;;13.90;68.60;;;;;;4988278;28;87953;-43
2023/11/03 12:37:05;;;;;;;;;;;14.00;68.60;;;;;;4990679;28;87205;-42
2023/11/03 12:39:30;;;;;;;;;;;13.90;68.80;;;;;;4990883;28;88804;-43
2023/11/03 12:42:02;;;;;;;;;;;13.90;68.60;;;;;;4987133;28;87981;-43
2023/11/03 12:44:31;;;;;;;;;;;13.90;68.80;;;;;;4990247;28;87006;-42
2023/11/03 12:46:57;;;;;;;;;;;13.90;68.90;;;;;;4992698;28;88232;-42
2023/11/03 12:49:22;;;;;;;;;;;13.90;68.70;;;;;;4990540;28;87622;-43
2023/11/03 12:51:48;;;;;;;;;;;13.90;69.20;;;;;;4983729;28;87862;-42
2023/11/03 12:54:16;;;;;;;;;;;14.00;69.00;;;;;;4988554;28;88981;-43
2023/11/03 12:56:45;;;;;;;;;;;13.90;68.90;;;;;;4991607;28;87135;-44
2023/11/03 12:59:11;;;;;;;;;;;14.00;68.90;;;;;;4988732;28;87886;-43
2023/11/03 13:01:37;;;;;;;;;;;14.00;69.00;;;;;;4990939;28;89480;-42
2023/11/03 13:04:04;;;;;;;;;;;14.00;68.90;;;;;;4992389;28;87050;-43
2023/11/03 13:06:30;;;;;;;;;;;14.00;69.00;;;;;;4996667;28;88880;-43
2023/11/03 13:08:57;;;;;;;;;;;14.00;69.00;;;;;;4992570;28;88447;-44
2023/11/03 13:11:22;;;;;;;;;;;14.10;69.00;;;;;;4989069;28;86582;-43
2023/11/03 13:13:48;;;;;;;;;;;14.10;69.10;;;;;;4992299;28;88582;-43
2023/11/03 13:16:14;;;;;;;;;;;14.10;69.10;;;;;;4994635;28;87693;-42
2023/11/03 13:18:42;;;;;;;;;;;14.10;68.90;;;;;;4988161;28;90147;-43
2023/11/03 13:21:10;;;;;;;;;;;14.10;68.90;;;;;;4990094;28;89389;-43
2023/11/03 13:23:36;;;;;;;;;;;14.10;68.90;;;;;;4995190;28;87335;-42
2023/11/03 13:26:02;;;;;;;;;;;14.10;69.00;;;;;;4993569;28;89738;-42
2023/11/03 13:28:27;;;;;;;;;;;14.10;69.20;;;;;;4995231;28;88005;-44
2023/11/03 13:30:56;;;;;;;;;;;14.10;69.00;;;;;;4994111;28;88773;-44
2023/11/03 13:33:21;;;;;;;;;;;14.10;68.90;;;;;;4993468;28;89362;-43
2023/11/03 13:35:48;;;;;;;;;;;14.10;69.10;;;;;;4989304;28;86704;-43
2023/11/03 13:38:14;;;;;;;;;;;14.10;69.00;;;;;;4993394;28;88341;-43
2023/11/03 13:40:40;;;;;;;;;;;14.10;69.10;;;;;;4991974;28;87277;-43
2023/11/03 13:43:05;;;;;;;;;;;14.20;69.20;;;;;;4991947;28;88136;-43
2023/11/03 13:45:31;;;;;;;;;;;14.20;69.10;;;;;;4992545;28;89909;-43
2023/11/03 13:47:57;;;;;;;;;;;14.20;69.00;;;;;;4990838;28;88051;-43
2023/11/03 13:50:23;;;;;;;;;;;14.20;69.20;;;;;;4991213;28;87453;-43
2023/11/03 13:52:49;;;;;;;;;;;14.20;69.20;;;;;;4993716;28;87973;-43
2023/11/03 13:55:16;;;;;;;;;;;14.20;69.10;;;;;;4997234;28;88334;-42
2023/11/03 13:57:42;;;;;;;;;;;14.20;69.00;;;;;;4990058;28;88963;-43
2023/11/03 14:00:12;;;;;;;;;;;14.20;69.10;;;;;;4991414;28;88696;-43
2023/11/03 14:02:39;;;;;;;;;;;14.20;69.30;;;;;;4993975;28;87581;-44
2023/11/03 14:05:05;;;;;;;;;;;14.20;69.20;;;;;;4991206;28;87816;-43
2023/11/03 14:07:31;;;;;;;;;;;14.20;69.30;;;;;;4989169;28;88796;-43
2023/11/03 14:09:58;;;;;;;;;;;14.20;69.40;;;;;;4992819;28;87148;-43
2023/11/03 14:12:25;;;;;;;;;;;14.30;69.20;;;;;;4991264;28;89725;-43
2023/11/03 14:14:51;;;;;;;;;;;14.30;69.20;;;;;;4991721;28;87501;-44